sensor_id;sensor_type;location;lat;lon;timestamp;P1;durP1;ratioP1;P2;durP2;ratioP2
72891;SDS011;61032;50.782;6.818;2023-04-06T00:00:57;9.90;;;5.88;;
72891;SDS011;61032;50.782;6.818;2023-04-06T00:01:57;8.23;;;5.55;;
72891;SDS011;61032;50.782;6.818;2023-04-06T00:02:58;9.80;;;5.40;;
72891;SDS011;61032;50.782;6.818;2023-04-06T00:03:58;11.35;;;5.95;;
72891;SDS011;61032;50.782;6.818;2023-04-06T00:04:59;10.40;;;6.38;;
72891;SDS011;61032;50.782;6.818;2023-04-06T00:05:59;10.35;;;6.72;;
72891;SDS011;61032;50.782;6.818;2023-04-06T00:06:59;10.98;;;5.85;;
72891;SDS011;61032;50.782;6.818;2023-04-06T00:08:00;9.73;;;6.18;;
72891;SDS011;61032;50.782;6.818;2023-04-06T00:09:00;14.70;;;6.95;;
72891;SDS011;61032;50.782;6.818;2023-04-06T00:10:01;11.40;;;6.65;;
72891;SDS011;61032;50.782;6.818;2023-04-06T00:11:02;11.55;;;6.15;;
72891;SDS011;61032;50.782;6.818;2023-04-06T00:12:02;11.18;;;6.72;;
72891;SDS011;61032;50.782;6.818;2023-04-06T00:13:03;11.15;;;6.82;;
72891;SDS011;61032;50.782;6.818;2023-04-06T00:14:03;14.40;;;7.30;;
72891;SDS011;61032;50.782;6.818;2023-04-06T00:15:04;11.45;;;6.22;;
72891;SDS011;61032;50.782;6.818;2023-04-06T00:16:05;11.30;;;6.75;;
72891;SDS011;61032;50.782;6.818;2023-04-06T00:17:06;9.25;;;5.88;;
72891;SDS011;61032;50.782;6.818;2023-04-06T00:18:06;11.57;;;7.15;;
72891;SDS011;61032;50.782;6.818;2023-04-06T00:19:07;11.02;;;6.80;;
72891;SDS011;61032;50.782;6.818;2023-04-06T00:20:07;9.85;;;5.70;;
72891;SDS011;61032;50.782;6.818;2023-04-06T00:21:10;9.98;;;5.65;;
72891;SDS011;61032;50.782;6.818;2023-04-06T00:22:12;9.23;;;5.65;;
72891;SDS011;61032;50.782;6.818;2023-04-06T00:23:13;10.73;;;6.25;;
72891;SDS011;61032;50.782;6.818;2023-04-06T00:24:13;11.13;;;6.10;;
72891;SDS011;61032;50.782;6.818;2023-04-06T00:25:13;9.57;;;5.97;;
72891;SDS011;61032;50.782;6.818;2023-04-06T00:26:15;13.23;;;6.53;;
72891;SDS011;61032;50.782;6.818;2023-04-06T00:27:15;10.68;;;5.13;;
72891;SDS011;61032;50.782;6.818;2023-04-06T00:28:16;9.73;;;6.03;;
72891;SDS011;61032;50.782;6.818;2023-04-06T00:29:17;8.43;;;5.47;;
72891;SDS011;61032;50.782;6.818;2023-04-06T00:30:17;11.23;;;6.30;;
72891;SDS011;61032;50.782;6.818;2023-04-06T00:31:17;12.60;;;5.88;;
72891;SDS011;61032;50.782;6.818;2023-04-06T00:32:18;10.00;;;5.55;;
72891;SDS011;61032;50.782;6.818;2023-04-06T00:33:18;12.98;;;6.93;;
72891;SDS011;61032;50.782;6.818;2023-04-06T00:34:19;14.98;;;6.43;;
72891;SDS011;61032;50.782;6.818;2023-04-06T00:35:20;10.70;;;5.72;;
72891;SDS011;61032;50.782;6.818;2023-04-06T00:36:21;10.50;;;5.88;;
72891;SDS011;61032;50.782;6.818;2023-04-06T00:37:21;10.20;;;5.82;;
72891;SDS011;61032;50.782;6.818;2023-04-06T00:38:21;12.60;;;5.65;;
72891;SDS011;61032;50.782;6.818;2023-04-06T00:39:22;11.10;;;6.28;;
72891;SDS011;61032;50.782;6.818;2023-04-06T00:40:22;9.35;;;5.97;;
72891;SDS011;61032;50.782;6.818;2023-04-06T00:41:23;9.18;;;5.82;;
72891;SDS011;61032;50.782;6.818;2023-04-06T00:42:23;9.07;;;5.07;;
72891;SDS011;61032;50.782;6.818;2023-04-06T00:43:27;11.43;;;5.43;;
72891;SDS011;61032;50.782;6.818;2023-04-06T00:44:27;11.02;;;5.63;;
72891;SDS011;61032;50.782;6.818;2023-04-06T00:45:28;10.65;;;5.93;;
72891;SDS011;61032;50.782;6.818;2023-04-06T00:46:28;13.38;;;5.47;;
72891;SDS011;61032;50.782;6.818;2023-04-06T00:47:28;9.93;;;5.65;;
72891;SDS011;61032;50.782;6.818;2023-04-06T00:48:29;9.48;;;5.65;;
72891;SDS011;61032;50.782;6.818;2023-04-06T00:49:31;12.02;;;5.90;;
72891;SDS011;61032;50.782;6.818;2023-04-06T00:50:32;10.15;;;5.80;;
72891;SDS011;61032;50.782;6.818;2023-04-06T00:51:33;11.43;;;6.70;;
72891;SDS011;61032;50.782;6.818;2023-04-06T00:52:34;12.00;;;4.95;;
72891;SDS011;61032;50.782;6.818;2023-04-06T00:53:35;8.00;;;5.75;;
72891;SDS011;61032;50.782;6.818;2023-04-06T00:54:35;10.15;;;5.22;;
72891;SDS011;61032;50.782;6.818;2023-04-06T00:55:36;8.93;;;5.95;;
72891;SDS011;61032;50.782;6.818;2023-04-06T00:56:36;10.70;;;5.15;;
72891;SDS011;61032;50.782;6.818;2023-04-06T00:57:37;13.48;;;6.03;;
72891;SDS011;61032;50.782;6.818;2023-04-06T00:58:37;12.13;;;5.97;;
72891;SDS011;61032;50.782;6.818;2023-04-06T00:59:38;8.27;;;5.68;;
72891;SDS011;61032;50.782;6.818;2023-04-06T01:00:40;10.93;;;5.88;;
72891;SDS011;61032;50.782;6.818;2023-04-06T01:01:41;10.48;;;6.15;;
72891;SDS011;61032;50.782;6.818;2023-04-06T01:02:41;9.45;;;6.13;;
72891;SDS011;61032;50.782;6.818;2023-04-06T01:03:42;8.05;;;5.50;;
72891;SDS011;61032;50.782;6.818;2023-04-06T01:05:44;11.70;;;5.93;;
72891;SDS011;61032;50.782;6.818;2023-04-06T01:06:44;9.88;;;5.40;;
72891;SDS011;61032;50.782;6.818;2023-04-06T01:07:45;9.93;;;5.43;;
72891;SDS011;61032;50.782;6.818;2023-04-06T01:08:45;9.70;;;6.57;;
72891;SDS011;61032;50.782;6.818;2023-04-06T01:09:46;11.05;;;6.30;;
72891;SDS011;61032;50.782;6.818;2023-04-06T01:10:46;15.32;;;5.75;;
72891;SDS011;61032;50.782;6.818;2023-04-06T01:11:47;12.27;;;5.78;;
72891;SDS011;61032;50.782;6.818;2023-04-06T01:12:47;10.35;;;6.10;;
72891;SDS011;61032;50.782;6.818;2023-04-06T01:13:47;9.95;;;6.00;;
72891;SDS011;61032;50.782;6.818;2023-04-06T01:14:48;9.93;;;5.38;;
72891;SDS011;61032;50.782;6.818;2023-04-06T01:15:48;11.63;;;5.65;;
72891;SDS011;61032;50.782;6.818;2023-04-06T01:16:50;11.13;;;6.28;;
72891;SDS011;61032;50.782;6.818;2023-04-06T01:17:50;10.32;;;5.82;;
72891;SDS011;61032;50.782;6.818;2023-04-06T01:18:51;9.85;;;5.90;;
72891;SDS011;61032;50.782;6.818;2023-04-06T01:19:51;12.32;;;6.15;;
72891;SDS011;61032;50.782;6.818;2023-04-06T01:20:53;9.98;;;6.35;;
72891;SDS011;61032;50.782;6.818;2023-04-06T01:21:54;10.88;;;5.80;;
72891;SDS011;61032;50.782;6.818;2023-04-06T01:22:55;11.45;;;6.43;;
72891;SDS011;61032;50.782;6.818;2023-04-06T01:23:55;9.13;;;5.55;;
72891;SDS011;61032;50.782;6.818;2023-04-06T01:24:55;12.05;;;6.57;;
72891;SDS011;61032;50.782;6.818;2023-04-06T01:25:56;9.48;;;5.85;;
72891;SDS011;61032;50.782;6.818;2023-04-06T01:26:56;9.75;;;6.30;;
72891;SDS011;61032;50.782;6.818;2023-04-06T01:27:57;9.57;;;6.45;;
72891;SDS011;61032;50.782;6.818;2023-04-06T01:28:57;12.90;;;5.75;;
72891;SDS011;61032;50.782;6.818;2023-04-06T01:29:58;10.98;;;6.60;;
72891;SDS011;61032;50.782;6.818;2023-04-06T01:30:59;13.90;;;6.45;;
72891;SDS011;61032;50.782;6.818;2023-04-06T01:32:00;11.48;;;5.75;;
72891;SDS011;61032;50.782;6.818;2023-04-06T01:33:00;11.98;;;5.72;;
72891;SDS011;61032;50.782;6.818;2023-04-06T01:34:00;10.35;;;5.63;;
72891;SDS011;61032;50.782;6.818;2023-04-06T01:35:01;14.60;;;6.28;;
72891;SDS011;61032;50.782;6.818;2023-04-06T01:36:01;9.90;;;5.53;;
72891;SDS011;61032;50.782;6.818;2023-04-06T01:37:03;9.63;;;5.85;;
72891;SDS011;61032;50.782;6.818;2023-04-06T01:38:03;10.23;;;6.13;;
72891;SDS011;61032;50.782;6.818;2023-04-06T01:39:03;11.68;;;6.13;;
72891;SDS011;61032;50.782;6.818;2023-04-06T01:40:04;12.48;;;6.28;;
72891;SDS011;61032;50.782;6.818;2023-04-06T01:41:05;11.40;;;6.05;;
72891;SDS011;61032;50.782;6.818;2023-04-06T01:42:06;9.80;;;6.43;;
72891;SDS011;61032;50.782;6.818;2023-04-06T01:43:06;14.13;;;7.82;;
72891;SDS011;61032;50.782;6.818;2023-04-06T01:44:06;14.93;;;7.43;;
72891;SDS011;61032;50.782;6.818;2023-04-06T01:45:07;15.27;;;7.78;;
72891;SDS011;61032;50.782;6.818;2023-04-06T01:46:07;14.30;;;7.18;;
72891;SDS011;61032;50.782;6.818;2023-04-06T01:47:08;10.95;;;6.57;;
72891;SDS011;61032;50.782;6.818;2023-04-06T01:48:08;14.25;;;6.57;;
72891;SDS011;61032;50.782;6.818;2023-04-06T01:49:08;12.73;;;6.43;;
72891;SDS011;61032;50.782;6.818;2023-04-06T01:50:09;12.73;;;6.82;;
72891;SDS011;61032;50.782;6.818;2023-04-06T01:51:10;12.05;;;6.32;;
72891;SDS011;61032;50.782;6.818;2023-04-06T01:52:10;14.60;;;7.15;;
72891;SDS011;61032;50.782;6.818;2023-04-06T01:53:11;10.07;;;6.68;;
72891;SDS011;61032;50.782;6.818;2023-04-06T01:54:11;11.20;;;6.63;;
72891;SDS011;61032;50.782;6.818;2023-04-06T01:55:12;12.73;;;7.68;;
72891;SDS011;61032;50.782;6.818;2023-04-06T01:56:12;10.55;;;6.55;;
72891;SDS011;61032;50.782;6.818;2023-04-06T01:57:12;12.77;;;7.13;;
72891;SDS011;61032;50.782;6.818;2023-04-06T01:58:13;12.10;;;6.63;;
72891;SDS011;61032;50.782;6.818;2023-04-06T01:59:13;10.15;;;6.55;;
72891;SDS011;61032;50.782;6.818;2023-04-06T02:00:14;11.95;;;6.32;;
72891;SDS011;61032;50.782;6.818;2023-04-06T02:01:15;12.93;;;6.95;;
72891;SDS011;61032;50.782;6.818;2023-04-06T02:02:16;11.30;;;6.20;;
72891;SDS011;61032;50.782;6.818;2023-04-06T02:03:16;12.98;;;5.90;;
72891;SDS011;61032;50.782;6.818;2023-04-06T02:04:17;10.90;;;6.68;;
72891;SDS011;61032;50.782;6.818;2023-04-06T02:05:17;10.27;;;5.97;;
72891;SDS011;61032;50.782;6.818;2023-04-06T02:06:17;10.07;;;5.95;;
72891;SDS011;61032;50.782;6.818;2023-04-06T02:07:18;12.68;;;6.88;;
72891;SDS011;61032;50.782;6.818;2023-04-06T02:08:18;11.27;;;6.25;;
72891;SDS011;61032;50.782;6.818;2023-04-06T02:09:18;13.52;;;6.90;;
72891;SDS011;61032;50.782;6.818;2023-04-06T02:10:19;12.82;;;6.63;;
72891;SDS011;61032;50.782;6.818;2023-04-06T02:11:19;11.63;;;6.75;;
72891;SDS011;61032;50.782;6.818;2023-04-06T02:12:20;17.30;;;6.88;;
72891;SDS011;61032;50.782;6.818;2023-04-06T02:13:20;11.30;;;6.80;;
72891;SDS011;61032;50.782;6.818;2023-04-06T02:14:20;13.20;;;6.85;;
72891;SDS011;61032;50.782;6.818;2023-04-06T02:15:21;12.93;;;6.93;;
72891;SDS011;61032;50.782;6.818;2023-04-06T02:16:21;11.00;;;6.05;;
72891;SDS011;61032;50.782;6.818;2023-04-06T02:17:22;11.80;;;6.65;;
72891;SDS011;61032;50.782;6.818;2023-04-06T02:18:22;10.05;;;6.55;;
72891;SDS011;61032;50.782;6.818;2023-04-06T02:19:22;12.77;;;6.35;;
72891;SDS011;61032;50.782;6.818;2023-04-06T02:20:23;11.43;;;6.63;;
72891;SDS011;61032;50.782;6.818;2023-04-06T02:21:23;10.77;;;6.93;;
72891;SDS011;61032;50.782;6.818;2023-04-06T02:22:24;12.75;;;6.68;;
72891;SDS011;61032;50.782;6.818;2023-04-06T02:23:24;11.80;;;6.47;;
72891;SDS011;61032;50.782;6.818;2023-04-06T02:24:25;12.23;;;7.05;;
72891;SDS011;61032;50.782;6.818;2023-04-06T02:25:25;12.20;;;5.88;;
72891;SDS011;61032;50.782;6.818;2023-04-06T02:26:26;14.43;;;6.95;;
72891;SDS011;61032;50.782;6.818;2023-04-06T02:27:26;10.95;;;6.80;;
72891;SDS011;61032;50.782;6.818;2023-04-06T02:28:27;8.35;;;5.75;;
72891;SDS011;61032;50.782;6.818;2023-04-06T02:29:27;12.23;;;6.57;;
72891;SDS011;61032;50.782;6.818;2023-04-06T02:30:27;9.95;;;5.35;;
72891;SDS011;61032;50.782;6.818;2023-04-06T02:31:29;10.10;;;6.43;;
72891;SDS011;61032;50.782;6.818;2023-04-06T02:32:29;12.48;;;5.28;;
72891;SDS011;61032;50.782;6.818;2023-04-06T02:33:30;10.95;;;5.88;;
72891;SDS011;61032;50.782;6.818;2023-04-06T02:34:30;12.65;;;6.97;;
72891;SDS011;61032;50.782;6.818;2023-04-06T02:35:31;11.05;;;6.03;;
72891;SDS011;61032;50.782;6.818;2023-04-06T02:36:31;8.88;;;5.82;;
72891;SDS011;61032;50.782;6.818;2023-04-06T02:37:32;17.40;;;7.00;;
72891;SDS011;61032;50.782;6.818;2023-04-06T02:38:32;10.90;;;6.13;;
72891;SDS011;61032;50.782;6.818;2023-04-06T02:39:32;12.23;;;6.45;;
72891;SDS011;61032;50.782;6.818;2023-04-06T02:40:33;10.85;;;6.50;;
72891;SDS011;61032;50.782;6.818;2023-04-06T02:41:33;10.50;;;5.68;;
72891;SDS011;61032;50.782;6.818;2023-04-06T02:42:33;9.10;;;5.55;;
72891;SDS011;61032;50.782;6.818;2023-04-06T02:43:35;10.45;;;6.03;;
72891;SDS011;61032;50.782;6.818;2023-04-06T02:44:35;9.10;;;5.93;;
72891;SDS011;61032;50.782;6.818;2023-04-06T02:45:35;12.18;;;6.60;;
72891;SDS011;61032;50.782;6.818;2023-04-06T02:46:36;10.77;;;6.20;;
72891;SDS011;61032;50.782;6.818;2023-04-06T02:47:36;9.98;;;6.18;;
72891;SDS011;61032;50.782;6.818;2023-04-06T02:48:36;10.73;;;6.00;;
72891;SDS011;61032;50.782;6.818;2023-04-06T02:49:37;11.48;;;5.75;;
72891;SDS011;61032;50.782;6.818;2023-04-06T02:50:37;13.18;;;5.75;;
72891;SDS011;61032;50.782;6.818;2023-04-06T02:51:37;11.85;;;7.10;;
72891;SDS011;61032;50.782;6.818;2023-04-06T02:52:38;12.80;;;7.30;;
72891;SDS011;61032;50.782;6.818;2023-04-06T02:53:38;14.07;;;6.40;;
72891;SDS011;61032;50.782;6.818;2023-04-06T02:54:38;13.18;;;6.78;;
72891;SDS011;61032;50.782;6.818;2023-04-06T02:55:39;10.98;;;5.38;;
72891;SDS011;61032;50.782;6.818;2023-04-06T02:56:39;9.77;;;5.85;;
72891;SDS011;61032;50.782;6.818;2023-04-06T02:57:40;11.57;;;6.30;;
72891;SDS011;61032;50.782;6.818;2023-04-06T02:58:40;10.18;;;6.25;;
72891;SDS011;61032;50.782;6.818;2023-04-06T02:59:40;11.43;;;7.10;;
72891;SDS011;61032;50.782;6.818;2023-04-06T03:00:41;12.27;;;6.93;;
72891;SDS011;61032;50.782;6.818;2023-04-06T03:01:41;12.50;;;6.78;;
72891;SDS011;61032;50.782;6.818;2023-04-06T03:02:42;9.55;;;5.60;;
72891;SDS011;61032;50.782;6.818;2023-04-06T03:03:42;14.63;;;6.75;;
72891;SDS011;61032;50.782;6.818;2023-04-06T03:04:42;13.35;;;6.22;;
72891;SDS011;61032;50.782;6.818;2023-04-06T03:05:43;12.45;;;6.53;;
72891;SDS011;61032;50.782;6.818;2023-04-06T03:06:43;12.52;;;6.45;;
72891;SDS011;61032;50.782;6.818;2023-04-06T03:07:43;10.70;;;6.50;;
72891;SDS011;61032;50.782;6.818;2023-04-06T03:08:44;12.00;;;7.40;;
72891;SDS011;61032;50.782;6.818;2023-04-06T03:09:44;14.20;;;7.28;;
72891;SDS011;61032;50.782;6.818;2023-04-06T03:10:45;10.68;;;6.07;;
72891;SDS011;61032;50.782;6.818;2023-04-06T03:11:45;11.05;;;6.22;;
72891;SDS011;61032;50.782;6.818;2023-04-06T03:12:45;10.68;;;6.95;;
72891;SDS011;61032;50.782;6.818;2023-04-06T03:13:46;11.38;;;6.72;;
72891;SDS011;61032;50.782;6.818;2023-04-06T03:14:46;14.55;;;7.28;;
72891;SDS011;61032;50.782;6.818;2023-04-06T03:15:46;13.05;;;7.22;;
72891;SDS011;61032;50.782;6.818;2023-04-06T03:16:47;9.23;;;6.57;;
72891;SDS011;61032;50.782;6.818;2023-04-06T03:17:48;11.07;;;6.60;;
72891;SDS011;61032;50.782;6.818;2023-04-06T03:18:49;11.52;;;6.70;;
72891;SDS011;61032;50.782;6.818;2023-04-06T03:19:49;11.45;;;6.57;;
72891;SDS011;61032;50.782;6.818;2023-04-06T03:20:49;13.43;;;6.55;;
72891;SDS011;61032;50.782;6.818;2023-04-06T03:21:50;13.07;;;6.30;;
72891;SDS011;61032;50.782;6.818;2023-04-06T03:22:51;11.73;;;6.13;;
72891;SDS011;61032;50.782;6.818;2023-04-06T03:23:51;10.43;;;5.40;;
72891;SDS011;61032;50.782;6.818;2023-04-06T03:24:51;13.52;;;6.53;;
72891;SDS011;61032;50.782;6.818;2023-04-06T03:25:52;13.18;;;6.85;;
72891;SDS011;61032;50.782;6.818;2023-04-06T03:26:52;18.20;;;8.18;;
72891;SDS011;61032;50.782;6.818;2023-04-06T03:27:52;10.98;;;7.53;;
72891;SDS011;61032;50.782;6.818;2023-04-06T03:28:53;14.50;;;8.10;;
72891;SDS011;61032;50.782;6.818;2023-04-06T03:29:53;18.10;;;8.88;;
72891;SDS011;61032;50.782;6.818;2023-04-06T03:30:53;17.20;;;9.60;;
72891;SDS011;61032;50.782;6.818;2023-04-06T03:31:54;17.35;;;8.30;;
72891;SDS011;61032;50.782;6.818;2023-04-06T03:32:54;17.23;;;9.25;;
72891;SDS011;61032;50.782;6.818;2023-04-06T03:33:55;18.25;;;7.88;;
72891;SDS011;61032;50.782;6.818;2023-04-06T03:34:55;15.05;;;7.50;;
72891;SDS011;61032;50.782;6.818;2023-04-06T03:35:56;14.93;;;7.95;;
72891;SDS011;61032;50.782;6.818;2023-04-06T03:36:56;17.25;;;8.18;;
72891;SDS011;61032;50.782;6.818;2023-04-06T03:37:56;15.63;;;8.43;;
72891;SDS011;61032;50.782;6.818;2023-04-06T03:38:57;15.57;;;7.72;;
72891;SDS011;61032;50.782;6.818;2023-04-06T03:39:58;14.57;;;8.25;;
72891;SDS011;61032;50.782;6.818;2023-04-06T03:40:58;13.10;;;7.80;;
72891;SDS011;61032;50.782;6.818;2023-04-06T03:41:58;11.95;;;7.50;;
72891;SDS011;61032;50.782;6.818;2023-04-06T03:42:58;15.77;;;7.68;;
72891;SDS011;61032;50.782;6.818;2023-04-06T03:43:59;14.10;;;7.47;;
72891;SDS011;61032;50.782;6.818;2023-04-06T03:44:59;9.90;;;6.60;;
72891;SDS011;61032;50.782;6.818;2023-04-06T03:46:00;19.20;;;7.70;;
72891;SDS011;61032;50.782;6.818;2023-04-06T03:47:00;21.15;;;10.40;;
72891;SDS011;61032;50.782;6.818;2023-04-06T03:48:02;21.17;;;10.82;;
72891;SDS011;61032;50.782;6.818;2023-04-06T03:49:02;28.73;;;12.07;;
72891;SDS011;61032;50.782;6.818;2023-04-06T03:50:03;23.70;;;10.73;;
72891;SDS011;61032;50.782;6.818;2023-04-06T03:51:04;21.92;;;10.43;;
72891;SDS011;61032;50.782;6.818;2023-04-06T03:52:04;14.73;;;8.85;;
72891;SDS011;61032;50.782;6.818;2023-04-06T03:53:04;12.88;;;7.10;;
72891;SDS011;61032;50.782;6.818;2023-04-06T03:54:05;12.52;;;7.72;;
72891;SDS011;61032;50.782;6.818;2023-04-06T03:55:05;14.00;;;6.93;;
72891;SDS011;61032;50.782;6.818;2023-04-06T03:56:06;14.13;;;7.68;;
72891;SDS011;61032;50.782;6.818;2023-04-06T03:57:07;11.95;;;7.05;;
72891;SDS011;61032;50.782;6.818;2023-04-06T03:58:07;11.75;;;7.30;;
72891;SDS011;61032;50.782;6.818;2023-04-06T03:59:07;9.77;;;6.63;;
72891;SDS011;61032;50.782;6.818;2023-04-06T04:00:08;13.55;;;6.93;;
72891;SDS011;61032;50.782;6.818;2023-04-06T04:01:09;11.98;;;6.82;;
72891;SDS011;61032;50.782;6.818;2023-04-06T04:02:09;13.40;;;7.00;;
72891;SDS011;61032;50.782;6.818;2023-04-06T04:03:10;11.48;;;6.72;;
72891;SDS011;61032;50.782;6.818;2023-04-06T04:04:10;13.50;;;6.93;;
72891;SDS011;61032;50.782;6.818;2023-04-06T04:05:10;14.27;;;7.13;;
72891;SDS011;61032;50.782;6.818;2023-04-06T04:06:11;15.98;;;7.50;;
72891;SDS011;61032;50.782;6.818;2023-04-06T04:07:11;12.00;;;6.13;;
72891;SDS011;61032;50.782;6.818;2023-04-06T04:08:11;11.90;;;6.70;;
72891;SDS011;61032;50.782;6.818;2023-04-06T04:09:12;12.57;;;6.68;;
72891;SDS011;61032;50.782;6.818;2023-04-06T04:10:12;13.10;;;7.50;;
72891;SDS011;61032;50.782;6.818;2023-04-06T04:11:13;12.95;;;7.82;;
72891;SDS011;61032;50.782;6.818;2023-04-06T04:12:13;10.90;;;7.38;;
72891;SDS011;61032;50.782;6.818;2023-04-06T04:13:15;13.65;;;7.22;;
72891;SDS011;61032;50.782;6.818;2023-04-06T04:14:15;14.73;;;7.57;;
72891;SDS011;61032;50.782;6.818;2023-04-06T04:15:16;13.23;;;7.85;;
72891;SDS011;61032;50.782;6.818;2023-04-06T04:16:16;17.67;;;7.65;;
72891;SDS011;61032;50.782;6.818;2023-04-06T04:17:16;17.00;;;8.18;;
72891;SDS011;61032;50.782;6.818;2023-04-06T04:18:17;13.43;;;6.95;;
72891;SDS011;61032;50.782;6.818;2023-04-06T04:19:17;16.65;;;8.80;;
72891;SDS011;61032;50.782;6.818;2023-04-06T04:20:17;11.48;;;7.07;;
72891;SDS011;61032;50.782;6.818;2023-04-06T04:21:18;13.25;;;7.13;;
72891;SDS011;61032;50.782;6.818;2023-04-06T04:22:18;15.18;;;7.63;;
72891;SDS011;61032;50.782;6.818;2023-04-06T04:23:18;10.88;;;6.97;;
72891;SDS011;61032;50.782;6.818;2023-04-06T04:24:19;9.15;;;5.75;;
72891;SDS011;61032;50.782;6.818;2023-04-06T04:25:22;10.40;;;6.07;;
72891;SDS011;61032;50.782;6.818;2023-04-06T04:26:23;11.27;;;6.88;;
72891;SDS011;61032;50.782;6.818;2023-04-06T04:27:23;14.35;;;6.32;;
72891;SDS011;61032;50.782;6.818;2023-04-06T04:28:24;9.75;;;5.20;;
72891;SDS011;61032;50.782;6.818;2023-04-06T04:29:24;15.45;;;7.05;;
72891;SDS011;61032;50.782;6.818;2023-04-06T04:30:25;8.93;;;5.47;;
72891;SDS011;61032;50.782;6.818;2023-04-06T04:31:25;10.15;;;5.22;;
72891;SDS011;61032;50.782;6.818;2023-04-06T04:32:26;9.43;;;6.20;;
72891;SDS011;61032;50.782;6.818;2023-04-06T04:33:27;9.13;;;5.55;;
72891;SDS011;61032;50.782;6.818;2023-04-06T04:34:27;8.57;;;5.45;;
72891;SDS011;61032;50.782;6.818;2023-04-06T04:35:28;9.02;;;5.85;;
72891;SDS011;61032;50.782;6.818;2023-04-06T04:36:28;12.55;;;5.45;;
72891;SDS011;61032;50.782;6.818;2023-04-06T04:37:28;10.50;;;5.30;;
72891;SDS011;61032;50.782;6.818;2023-04-06T04:38:29;9.48;;;5.70;;
72891;SDS011;61032;50.782;6.818;2023-04-06T04:39:29;9.65;;;5.22;;
72891;SDS011;61032;50.782;6.818;2023-04-06T04:40:30;9.70;;;6.10;;
72891;SDS011;61032;50.782;6.818;2023-04-06T04:41:30;9.57;;;5.90;;
72891;SDS011;61032;50.782;6.818;2023-04-06T04:42:30;9.73;;;6.25;;
72891;SDS011;61032;50.782;6.818;2023-04-06T04:43:31;10.23;;;5.47;;
72891;SDS011;61032;50.782;6.818;2023-04-06T04:44:31;11.45;;;5.00;;
72891;SDS011;61032;50.782;6.818;2023-04-06T04:45:31;9.43;;;5.25;;
72891;SDS011;61032;50.782;6.818;2023-04-06T04:46:32;10.73;;;6.63;;
72891;SDS011;61032;50.782;6.818;2023-04-06T04:47:32;13.32;;;6.28;;
72891;SDS011;61032;50.782;6.818;2023-04-06T04:48:32;10.15;;;5.80;;
72891;SDS011;61032;50.782;6.818;2023-04-06T04:49:33;8.27;;;5.32;;
72891;SDS011;61032;50.782;6.818;2023-04-06T04:50:33;13.10;;;5.43;;
72891;SDS011;61032;50.782;6.818;2023-04-06T04:51:33;10.75;;;6.13;;
72891;SDS011;61032;50.782;6.818;2023-04-06T04:52:34;10.80;;;6.13;;
72891;SDS011;61032;50.782;6.818;2023-04-06T04:53:34;10.85;;;6.05;;
72891;SDS011;61032;50.782;6.818;2023-04-06T04:54:35;9.60;;;5.28;;
72891;SDS011;61032;50.782;6.818;2023-04-06T04:55:35;9.40;;;5.30;;
72891;SDS011;61032;50.782;6.818;2023-04-06T04:56:35;8.70;;;5.68;;
72891;SDS011;61032;50.782;6.818;2023-04-06T04:57:36;10.57;;;5.60;;
72891;SDS011;61032;50.782;6.818;2023-04-06T04:58:36;8.45;;;5.38;;
72891;SDS011;61032;50.782;6.818;2023-04-06T04:59:36;9.38;;;5.63;;
72891;SDS011;61032;50.782;6.818;2023-04-06T05:00:37;9.63;;;6.05;;
72891;SDS011;61032;50.782;6.818;2023-04-06T05:01:37;12.20;;;5.53;;
72891;SDS011;61032;50.782;6.818;2023-04-06T05:02:37;11.70;;;5.88;;
72891;SDS011;61032;50.782;6.818;2023-04-06T05:03:38;12.07;;;5.25;;
72891;SDS011;61032;50.782;6.818;2023-04-06T05:04:39;9.20;;;5.00;;
72891;SDS011;61032;50.782;6.818;2023-04-06T05:05:40;9.75;;;6.07;;
72891;SDS011;61032;50.782;6.818;2023-04-06T05:06:40;10.00;;;6.25;;
72891;SDS011;61032;50.782;6.818;2023-04-06T05:07:40;9.25;;;5.45;;
72891;SDS011;61032;50.782;6.818;2023-04-06T05:08:41;9.73;;;5.45;;
72891;SDS011;61032;50.782;6.818;2023-04-06T05:09:42;11.60;;;5.30;;
72891;SDS011;61032;50.782;6.818;2023-04-06T05:10:42;11.32;;;5.70;;
72891;SDS011;61032;50.782;6.818;2023-04-06T05:11:44;7.97;;;5.55;;
72891;SDS011;61032;50.782;6.818;2023-04-06T05:12:44;8.57;;;6.03;;
72891;SDS011;61032;50.782;6.818;2023-04-06T05:13:45;8.60;;;5.43;;
72891;SDS011;61032;50.782;6.818;2023-04-06T05:14:45;10.48;;;6.22;;
72891;SDS011;61032;50.782;6.818;2023-04-06T05:15:45;9.35;;;5.32;;
72891;SDS011;61032;50.782;6.818;2023-04-06T05:16:46;9.38;;;5.93;;
72891;SDS011;61032;50.782;6.818;2023-04-06T05:17:46;9.95;;;6.18;;
72891;SDS011;61032;50.782;6.818;2023-04-06T05:18:47;10.85;;;7.07;;
72891;SDS011;61032;50.782;6.818;2023-04-06T05:19:48;11.02;;;6.25;;
72891;SDS011;61032;50.782;6.818;2023-04-06T05:20:48;14.45;;;6.15;;
72891;SDS011;61032;50.782;6.818;2023-04-06T05:21:49;13.07;;;6.70;;
72891;SDS011;61032;50.782;6.818;2023-04-06T05:22:50;12.05;;;7.00;;
72891;SDS011;61032;50.782;6.818;2023-04-06T05:23:50;16.30;;;7.82;;
72891;SDS011;61032;50.782;6.818;2023-04-06T05:24:50;15.35;;;7.05;;
72891;SDS011;61032;50.782;6.818;2023-04-06T05:25:51;11.43;;;7.80;;
72891;SDS011;61032;50.782;6.818;2023-04-06T05:26:51;15.85;;;7.68;;
72891;SDS011;61032;50.782;6.818;2023-04-06T05:27:52;13.93;;;7.53;;
72891;SDS011;61032;50.782;6.818;2023-04-06T05:28:53;11.07;;;6.57;;
72891;SDS011;61032;50.782;6.818;2023-04-06T05:29:54;11.32;;;6.00;;
72891;SDS011;61032;50.782;6.818;2023-04-06T05:30:55;9.98;;;6.15;;
72891;SDS011;61032;50.782;6.818;2023-04-06T05:31:56;8.38;;;5.35;;
72891;SDS011;61032;50.782;6.818;2023-04-06T05:32:57;12.90;;;5.55;;
72891;SDS011;61032;50.782;6.818;2023-04-06T05:33:58;11.20;;;5.65;;
72891;SDS011;61032;50.782;6.818;2023-04-06T05:34:59;11.73;;;5.53;;
72891;SDS011;61032;50.782;6.818;2023-04-06T05:35:59;9.50;;;5.32;;
72891;SDS011;61032;50.782;6.818;2023-04-06T05:37:00;8.73;;;4.78;;
72891;SDS011;61032;50.782;6.818;2023-04-06T05:38:01;11.13;;;5.72;;
72891;SDS011;61032;50.782;6.818;2023-04-06T05:39:01;7.88;;;4.95;;
72891;SDS011;61032;50.782;6.818;2023-04-06T05:40:02;9.43;;;5.05;;
72891;SDS011;61032;50.782;6.818;2023-04-06T05:41:03;9.48;;;5.28;;
72891;SDS011;61032;50.782;6.818;2023-04-06T05:42:04;7.63;;;5.03;;
72891;SDS011;61032;50.782;6.818;2023-04-06T05:43:05;9.52;;;4.95;;
72891;SDS011;61032;50.782;6.818;2023-04-06T05:44:05;7.50;;;5.15;;
72891;SDS011;61032;50.782;6.818;2023-04-06T05:45:06;8.43;;;5.38;;
72891;SDS011;61032;50.782;6.818;2023-04-06T05:46:07;11.75;;;5.22;;
72891;SDS011;61032;50.782;6.818;2023-04-06T05:47:07;8.23;;;5.07;;
72891;SDS011;61032;50.782;6.818;2023-04-06T05:48:08;8.48;;;5.85;;
72891;SDS011;61032;50.782;6.818;2023-04-06T05:49:08;10.15;;;5.22;;
72891;SDS011;61032;50.782;6.818;2023-04-06T05:50:08;8.00;;;5.28;;
72891;SDS011;61032;50.782;6.818;2023-04-06T05:51:09;7.40;;;4.63;;
72891;SDS011;61032;50.782;6.818;2023-04-06T05:52:10;10.77;;;5.28;;
72891;SDS011;61032;50.782;6.818;2023-04-06T05:53:10;8.55;;;5.18;;
72891;SDS011;61032;50.782;6.818;2023-04-06T05:54:10;12.10;;;6.20;;
72891;SDS011;61032;50.782;6.818;2023-04-06T05:55:11;9.18;;;5.07;;
72891;SDS011;61032;50.782;6.818;2023-04-06T05:56:11;6.43;;;4.15;;
72891;SDS011;61032;50.782;6.818;2023-04-06T05:57:11;10.05;;;4.70;;
72891;SDS011;61032;50.782;6.818;2023-04-06T05:58:12;10.13;;;5.80;;
72891;SDS011;61032;50.782;6.818;2023-04-06T05:59:12;10.45;;;5.68;;
72891;SDS011;61032;50.782;6.818;2023-04-06T06:00:13;8.63;;;5.03;;
72891;SDS011;61032;50.782;6.818;2023-04-06T06:01:14;11.73;;;5.40;;
72891;SDS011;61032;50.782;6.818;2023-04-06T06:02:15;8.32;;;4.25;;